< Typhoon 199417 1994 Season Typhoon 199419 >
Typhoon 199418 (HARRY)
General InformationTrack Information on Google MapsDetailed Wind InformationList of All Images || Disaster Info.ResourceGoogle EarthGE AnimationAtom FeedGeoJSON
Detalied Best Track (Time Zone = UTC)
Year Month Day Hour Lat. Long. Pressure (hPa) Wind (kt) Class Image Chart
1994 8 24 00 15.5 124.0 1006 0 2 Image Chart
1994 8 24 06 16.0 123.0 1006 0 2 Image Chart
1994 8 24 12 16.5 121.5 1006 0 2 Image Chart
1994 8 24 18 17.0 120.0 1006 0 2 Image Chart
1994 8 25 00 17.0 119.0 1004 0 2 Image Chart
1994 8 25 06 17.3 118.1 1002 0 2 Image Chart
1994 8 25 12 17.7 117.3 1000 0 2 Image Chart
1994 8 25 18 18.2 116.7 1000 0 2 Image Chart
1994 8 26 00 18.7 116.0 998 35 3 Image Chart
1994 8 26 06 19.0 115.1 998 35 3 Image Chart
1994 8 26 12 19.4 114.1 996 35 3 Image Chart
1994 8 26 18 19.7 113.2 996 35 3 Image Chart
1994 8 27 00 20.0 112.3 994 40 3 Image Chart
1994 8 27 06 20.2 111.5 992 45 3 Image Chart
1994 8 27 12 20.3 110.7 990 45 3 Image Chart
1994 8 27 18 20.3 110.1 990 45 3 Image Chart
1994 8 28 00 20.4 109.4 990 45 3 Image Chart
1994 8 28 06 20.7 108.6 990 45 3 Image Chart
1994 8 28 12 21.0 107.7 990 45 3 Image Chart
1994 8 28 18 21.1 106.5 992 40 3 Image Chart
1994 8 29 00 21.2 105.4 996 35 3 Image Chart
1994 8 29 06 21.4 104.0 1000 0 2 Image Chart
1994 8 29 12 21.5 102.5 1002 0 2 Image Chart
Japan Meteorological Agency Best Track Data | Correction Date : 1995-01-30
< Typhoon 199417 1994 Season Typhoon 199419 >

Help